createdAt,value
2018-02-15T00:00:36.207Z,10.50
2018-02-15T00:03:03.652Z,9.33
2018-02-15T00:05:31.101Z,9.03
2018-02-15T00:07:59.316Z,10.33
2018-02-15T00:10:27.535Z,9.63
2018-02-15T00:12:54.997Z,9.97
2018-02-15T00:15:22.437Z,9.87
2018-02-15T00:17:49.887Z,10.07
2018-02-15T00:20:17.344Z,9.33
2018-02-15T00:22:44.805Z,10.20
2018-02-15T00:25:12.256Z,9.80
2018-02-15T00:27:39.720Z,10.40
2018-02-15T00:30:07.219Z,10.27
2018-02-15T00:32:34.672Z,9.33
2018-02-15T00:35:02.147Z,9.43
2018-02-15T00:37:29.584Z,9.47
2018-02-15T00:39:57.076Z,9.37
2018-02-15T00:42:24.550Z,9.80
2018-02-15T00:44:51.985Z,9.97
2018-02-15T00:47:19.422Z,10.17
2018-02-15T00:49:46.881Z,8.63
2018-02-15T00:52:14.334Z,10.20
2018-02-15T00:54:41.799Z,10.00
2018-02-15T00:57:09.258Z,9.87
2018-02-15T00:59:36.751Z,9.90
2018-02-15T01:02:04.204Z,9.90
2018-02-15T01:04:31.676Z,9.43
2018-02-15T01:06:59.124Z,10.17
2018-02-15T01:09:26.616Z,9.30
2018-02-15T01:11:54.094Z,8.87
2018-02-15T01:14:21.537Z,9.00
2018-02-15T01:16:48.982Z,8.90
2018-02-15T01:19:16.453Z,9.47
2018-02-15T01:21:43.905Z,8.97
2018-02-15T01:24:11.341Z,9.60
2018-02-15T01:26:39.588Z,9.03
2018-02-15T01:29:07.030Z,8.73
2018-02-15T01:31:34.475Z,9.63
2018-02-15T01:34:01.916Z,8.80
2018-02-15T01:36:29.361Z,9.70
2018-02-15T01:38:56.797Z,9.00
2018-02-15T01:41:24.242Z,9.57
2018-02-15T01:43:51.758Z,9.73
2018-02-15T01:46:19.189Z,9.27
2018-02-15T01:48:46.642Z,9.07
2018-02-15T01:51:14.080Z,9.40
2018-02-15T01:53:41.538Z,9.63
2018-02-15T01:56:08.975Z,9.13
2018-02-15T01:58:37.180Z,9.07
2018-02-15T02:01:05.043Z,8.83
2018-02-15T02:03:32.489Z,10.10
2018-02-15T02:05:59.935Z,9.13
2018-02-15T02:08:28.149Z,9.50
2018-02-15T02:10:55.603Z,9.17
2018-02-15T02:13:23.063Z,8.93
2018-02-15T02:15:50.518Z,9.10
2018-02-15T02:18:17.980Z,9.50
2018-02-15T02:20:46.205Z,9.60
2018-02-15T02:23:13.664Z,9.03
2018-02-15T02:25:41.133Z,9.13
2018-02-15T02:28:08.582Z,9.07
2018-02-15T02:30:36.022Z,9.00
2018-02-15T02:33:03.481Z,8.93
2018-02-15T02:35:30.934Z,8.67
2018-02-15T02:37:59.152Z,9.10
2018-02-15T02:40:26.619Z,8.80
2018-02-15T02:42:54.058Z,8.40
2018-02-15T02:45:21.523Z,9.07
2018-02-15T02:47:48.979Z,8.70
2018-02-15T02:50:16.868Z,8.90
2018-02-15T02:52:44.323Z,9.20
2018-02-15T02:55:11.768Z,9.03
2018-02-15T02:57:39.985Z,9.70
2018-02-15T03:00:25.304Z,9.03
2018-02-15T03:02:53.568Z,8.37
2018-02-15T03:05:21.059Z,9.67
2018-02-15T03:07:49.313Z,8.57
2018-02-15T03:10:16.824Z,9.20
2018-02-15T03:12:44.305Z,8.63
2018-02-15T03:15:11.831Z,9.00
2018-02-15T03:17:40.074Z,9.20
2018-02-15T03:20:07.573Z,8.83
2018-02-15T03:22:35.951Z,8.57
2018-02-15T03:25:04.171Z,9.00
2018-02-15T03:27:31.622Z,9.50
2018-02-15T03:29:59.068Z,8.47
2018-02-15T03:32:26.519Z,8.57
2018-02-15T03:34:54.725Z,8.50
2018-02-15T03:37:22.212Z,9.00
2018-02-15T03:39:49.660Z,8.20
2018-02-15T03:42:17.096Z,8.30
2018-02-15T03:44:45.317Z,9.30
2018-02-15T03:47:12.808Z,8.53
2018-02-15T03:49:40.257Z,8.77
2018-02-15T03:52:08.476Z,8.60
2018-02-15T03:54:36.714Z,8.60
2018-02-15T03:57:04.174Z,8.63
2018-02-15T03:59:31.612Z,8.63
2018-02-15T04:01:59.087Z,9.43
2018-02-15T04:04:26.552Z,9.33
2018-02-15T04:06:54.019Z,9.07
2018-02-15T04:09:21.497Z,8.77
2018-02-15T04:11:48.966Z,9.80
2018-02-15T04:14:16.433Z,8.97
2018-02-15T04:16:43.900Z,9.37
2018-02-15T04:19:11.364Z,9.57
2018-02-15T04:21:38.831Z,9.30
2018-02-15T04:24:06.285Z,8.27
2018-02-15T04:26:33.763Z,9.23
2018-02-15T04:29:01.992Z,9.20
2018-02-15T04:31:29.477Z,9.53
2018-02-15T04:33:56.954Z,9.60
2018-02-15T04:36:24.426Z,9.30
2018-02-15T04:38:51.880Z,9.07
2018-02-15T04:41:19.322Z,9.97
2018-02-15T04:43:46.789Z,9.17
2018-02-15T04:46:14.242Z,9.13
2018-02-15T04:48:41.712Z,9.33
2018-02-15T04:51:09.144Z,9.47
2018-02-15T04:53:36.620Z,9.60
2018-02-15T04:56:04.076Z,9.00
2018-02-15T04:58:31.540Z,9.67
2018-02-15T05:00:59.002Z,10.10
2018-02-15T05:03:26.469Z,9.50
2018-02-15T05:05:53.934Z,9.73
2018-02-15T05:08:21.391Z,9.80
2018-02-15T05:10:48.891Z,10.07
2018-02-15T05:13:16.372Z,9.77
2018-02-15T05:15:44.601Z,10.53
2018-02-15T05:18:12.059Z,10.50
2018-02-15T05:20:39.577Z,10.33
2018-02-15T05:23:07.805Z,10.50
2018-02-15T05:25:35.279Z,10.40
2018-02-15T05:28:02.725Z,10.00
2018-02-15T05:30:30.188Z,10.43
2018-02-15T05:32:57.643Z,10.83
2018-02-15T05:35:25.089Z,10.43
2018-02-15T05:37:52.533Z,10.23
2018-02-15T05:40:20.758Z,10.63
2018-02-15T05:42:48.208Z,11.07
2018-02-15T05:45:15.658Z,10.50
2018-02-15T05:47:43.101Z,10.87
2018-02-15T05:50:11.323Z,10.27
2018-02-15T05:52:38.770Z,10.43
2018-02-15T05:55:06.233Z,10.40
2018-02-15T05:57:33.667Z,10.37
2018-02-15T06:00:01.894Z,10.50
2018-02-15T06:02:29.365Z,11.57
2018-02-15T06:04:56.844Z,11.27
2018-02-15T06:07:24.334Z,10.80
2018-02-15T06:09:54.660Z,10.93
2018-02-15T06:12:22.977Z,11.37
2018-02-15T06:14:50.487Z,10.80
2018-02-15T06:17:17.984Z,10.87
2018-02-15T06:19:46.284Z,10.43
2018-02-15T06:22:15.686Z,10.90
2018-02-15T06:24:43.995Z,11.70
2018-02-15T06:27:11.570Z,11.60
2018-02-15T06:29:39.099Z,10.67
2018-02-15T06:32:07.407Z,10.93
2018-02-15T06:34:34.933Z,10.97
2018-02-15T06:37:03.267Z,11.30
2018-02-15T06:39:30.921Z,11.03
2018-02-15T06:41:58.422Z,10.30
2018-02-15T06:44:26.744Z,10.80
2018-02-15T06:46:54.275Z,11.00
2018-02-15T06:49:21.804Z,10.73
2018-02-15T06:51:49.349Z,10.97
2018-02-15T06:54:16.887Z,10.60
2018-02-15T06:56:45.187Z,11.10
2018-02-15T06:59:12.711Z,10.70
2018-02-15T07:01:41.022Z,10.57
2018-02-15T07:04:09.319Z,10.23
2018-02-15T07:06:36.837Z,10.87
2018-02-15T07:09:04.359Z,11.17
2018-02-15T07:11:31.876Z,10.60
2018-02-15T07:14:00.257Z,10.10
2018-02-15T07:16:27.780Z,10.47
2018-02-15T07:18:55.310Z,11.13
2018-02-15T07:21:23.610Z,11.03
2018-02-15T07:23:51.137Z,9.37
2018-02-15T07:26:18.644Z,9.83
2018-02-15T07:28:46.177Z,10.17
2018-02-15T07:31:14.491Z,9.83
2018-02-15T07:33:42.027Z,10.77
2018-02-15T07:36:10.372Z,10.03
2018-02-15T07:38:37.891Z,9.63
2018-02-15T07:41:05.434Z,10.17
2018-02-15T07:43:33.716Z,10.77
2018-02-15T07:46:01.990Z,9.97
2018-02-15T07:48:30.273Z,10.43
2018-02-15T07:50:58.597Z,10.33
2018-02-15T07:53:26.117Z,9.33
2018-02-15T07:55:54.409Z,10.60
2018-02-15T07:58:22.707Z,10.63
2018-02-15T08:00:50.221Z,10.20
2018-02-15T08:03:17.764Z,10.50
2018-02-15T08:05:45.297Z,9.87
2018-02-15T08:08:12.827Z,9.80
2018-02-15T08:10:40.374Z,10.27
2018-02-15T08:13:07.942Z,10.37
2018-02-15T08:15:35.476Z,10.23
2018-02-15T08:18:03.043Z,10.43
2018-02-15T08:20:30.573Z,10.43
2018-02-15T08:22:58.845Z,9.53
2018-02-15T08:25:27.137Z,9.60
2018-02-15T08:27:55.413Z,10.30
2018-02-15T08:30:22.947Z,9.87
2018-02-15T08:32:50.476Z,10.20
2018-02-15T08:35:18.000Z,9.67
2018-02-15T08:37:46.306Z,9.53
2018-02-15T08:40:13.824Z,9.73
2018-02-15T08:42:41.353Z,10.17
2018-02-15T08:45:08.867Z,10.17
2018-02-15T08:47:37.151Z,10.17
2018-02-15T08:50:04.661Z,9.67
2018-02-15T08:52:32.183Z,9.97
2018-02-15T08:55:00.472Z,9.63
2018-02-15T08:57:28.743Z,9.73
2018-02-15T08:59:57.011Z,9.87
2018-02-15T09:02:24.508Z,9.80
2018-02-15T09:04:52.785Z,9.33
2018-02-15T09:07:21.076Z,9.90
2018-02-15T09:09:48.619Z,10.20
2018-02-15T09:12:17.410Z,10.60
2018-02-15T09:14:44.905Z,9.73
2018-02-15T09:17:12.419Z,9.67
2018-02-15T09:19:39.930Z,9.90
2018-02-15T09:22:07.437Z,10.30
2018-02-15T09:24:34.961Z,9.30
2018-02-15T09:27:02.484Z,10.10
2018-02-15T09:29:29.996Z,9.40
2018-02-15T09:31:57.502Z,9.70
2018-02-15T09:34:25.029Z,9.03
2018-02-15T09:36:52.559Z,9.47
2018-02-15T09:39:20.836Z,9.20
2018-02-15T09:41:49.142Z,10.17
2018-02-15T09:44:16.658Z,9.63
2018-02-15T09:46:44.171Z,9.97
2018-02-15T09:49:11.703Z,10.23
2018-02-15T09:51:39.211Z,9.77
2018-02-15T09:54:06.747Z,10.23
2018-02-15T09:56:35.076Z,10.40
2018-02-15T09:59:02.593Z,10.20
2018-02-15T10:01:30.127Z,9.97
2018-02-15T10:03:57.710Z,10.87
2018-02-15T10:06:25.994Z,10.03
2018-02-15T10:08:54.269Z,9.60
2018-02-15T10:11:22.564Z,9.33
2018-02-15T10:13:50.842Z,11.10
2018-02-15T10:16:19.120Z,9.13
2018-02-15T10:18:47.405Z,10.20
2018-02-15T10:21:15.682Z,10.10
2018-02-15T10:23:43.959Z,10.50
2018-02-15T10:26:12.263Z,10.93
2018-02-15T10:28:39.783Z,10.13
2018-02-15T10:31:07.301Z,11.37
2018-02-15T10:33:34.811Z,10.87
2018-02-15T10:36:02.342Z,10.47
2018-02-15T10:38:29.893Z,10.70
2018-02-15T10:40:57.410Z,12.20
2018-02-15T10:43:25.023Z,10.90
2018-02-15T10:45:52.528Z,11.90
2018-02-15T10:48:20.062Z,10.20
2018-02-15T10:50:47.641Z,13.82
2018-02-15T10:53:15.176Z,12.03
2018-02-15T10:55:42.758Z,10.80
2018-02-15T10:58:10.313Z,12.30
2018-02-15T11:00:43.559Z,11.77
2018-02-15T11:03:16.885Z,12.87
2018-02-15T11:05:45.971Z,12.60
2018-02-15T11:08:13.592Z,12.13
2018-02-15T11:10:41.122Z,12.83
2018-02-15T11:13:08.634Z,13.10
2018-02-15T11:15:36.170Z,12.53
2018-02-15T11:18:03.718Z,13.83
2018-02-15T11:20:31.656Z,12.87
2018-02-15T11:22:59.189Z,14.73
2018-02-15T11:25:27.532Z,13.50
2018-02-15T11:27:55.830Z,11.93
2018-02-15T11:30:23.349Z,15.17
2018-02-15T11:32:50.896Z,12.40
2018-02-15T11:35:18.436Z,19.48
2018-02-15T11:37:45.963Z,13.90
2018-02-15T11:40:14.257Z,14.37
2018-02-15T11:42:41.782Z,14.40
2018-02-15T11:45:09.316Z,14.13
2018-02-15T11:47:36.849Z,14.47
2018-02-15T11:50:04.379Z,14.27
2018-02-15T11:52:31.912Z,13.93
2018-02-15T11:54:59.440Z,14.57
2018-02-15T11:57:26.965Z,15.03
2018-02-15T11:59:54.484Z,14.77
2018-02-15T12:02:22.008Z,15.17
2018-02-15T12:04:50.284Z,14.43
2018-02-15T12:07:17.807Z,13.43
2018-02-15T12:09:45.824Z,13.53
2018-02-15T12:12:14.126Z,12.73
2018-02-15T12:14:42.403Z,12.90
2018-02-15T12:17:10.694Z,12.03
2018-02-15T12:19:38.978Z,11.63
2018-02-15T12:22:07.279Z,11.93
2018-02-15T12:24:34.805Z,11.47
2018-02-15T12:27:02.312Z,11.37
2018-02-15T12:29:29.865Z,11.30
2018-02-15T12:31:57.404Z,10.53
2018-02-15T12:34:25.698Z,11.07
2018-02-15T12:36:53.985Z,9.97
2018-02-15T12:39:21.522Z,10.63
2018-02-15T12:41:49.019Z,9.70
2018-02-15T12:44:16.535Z,9.17
2018-02-15T12:46:44.036Z,9.43
2018-02-15T12:49:12.320Z,8.40
2018-02-15T12:51:39.892Z,8.47
2018-02-15T12:54:07.431Z,8.37
2018-02-15T12:56:34.951Z,9.30
2018-02-15T12:59:02.470Z,8.93
2018-02-15T13:01:30.755Z,9.00
2018-02-15T13:03:59.034Z,7.97
2018-02-15T13:06:27.330Z,7.77
2018-02-15T13:08:54.861Z,7.63
2018-02-15T13:11:22.382Z,7.93
2018-02-15T13:13:49.908Z,8.43
2018-02-15T13:16:30.215Z,7.57
2018-02-15T13:19:09.599Z,7.20
2018-02-15T13:21:37.898Z,7.60
2018-02-15T13:24:05.435Z,6.77
2018-02-15T13:26:33.715Z,6.87
2018-02-15T13:29:02.009Z,6.50
2018-02-15T13:31:29.535Z,5.90
2018-02-15T13:33:57.037Z,6.10
2018-02-15T13:36:25.326Z,5.33
2018-02-15T13:38:52.866Z,5.77
2018-02-15T13:41:21.156Z,5.73
2018-02-15T13:43:49.452Z,6.03
2018-02-15T13:46:17.713Z,5.10
2018-02-15T13:48:45.222Z,5.37
2018-02-15T13:51:12.744Z,5.80
2018-02-15T13:53:41.074Z,5.13
2018-02-15T13:58:52.260Z,4.97
2018-02-15T14:01:19.760Z,5.07
2018-02-15T14:03:47.318Z,6.00
2018-02-15T14:06:14.834Z,5.40
2018-02-15T14:08:42.367Z,5.20
2018-02-15T14:11:09.905Z,5.40
2018-02-15T14:13:37.450Z,5.67
2018-02-15T14:16:04.987Z,5.30
2018-02-15T14:18:32.501Z,4.90
2018-02-15T14:21:00.042Z,4.90
2018-02-15T14:23:27.578Z,4.87
2018-02-15T14:25:55.131Z,5.40
2018-02-15T14:28:23.408Z,4.10
2018-02-15T14:30:51.686Z,4.37
2018-02-15T14:33:19.213Z,4.27
2018-02-15T14:35:46.733Z,3.90
2018-02-15T14:38:15.007Z,3.87
2018-02-15T14:40:43.330Z,4.03
2018-02-15T14:43:10.852Z,4.10
2018-02-15T14:45:39.113Z,4.00
2018-02-15T14:48:06.642Z,4.13
2018-02-15T14:50:34.156Z,3.27
2018-02-15T14:53:02.450Z,3.30
2018-02-15T14:55:30.754Z,3.13
2018-02-15T14:57:59.087Z,3.63
2018-02-15T15:00:26.601Z,3.40
2018-02-15T15:02:54.112Z,3.13
2018-02-15T15:05:21.642Z,3.20
2018-02-15T15:07:49.172Z,3.20
2018-02-15T15:10:17.458Z,2.80
2018-02-15T15:12:44.970Z,2.73
2018-02-15T15:15:12.523Z,4.27
2018-02-15T15:17:40.066Z,3.33
2018-02-15T15:20:07.588Z,2.90
2018-02-15T15:22:35.892Z,3.13
2018-02-15T15:25:03.484Z,2.90
2018-02-15T15:27:31.120Z,3.27
2018-02-15T15:29:59.424Z,3.43
2018-02-15T15:32:27.029Z,3.03
2018-02-15T15:34:54.555Z,2.47
2018-02-15T15:37:22.059Z,2.80
2018-02-15T15:39:49.580Z,2.87
2018-02-15T15:42:17.093Z,3.00
2018-02-15T15:44:44.633Z,2.87
2018-02-15T15:47:12.164Z,2.63
2018-02-15T15:49:39.696Z,2.70
2018-02-15T15:52:07.254Z,2.53
2018-02-15T15:54:34.780Z,2.60
2018-02-15T15:57:02.293Z,2.63
2018-02-15T15:59:29.840Z,2.40
2018-02-15T16:01:57.356Z,2.50
2018-02-15T16:04:24.911Z,2.40
2018-02-15T16:06:52.439Z,2.30
2018-02-15T16:09:19.971Z,2.60
2018-02-15T16:11:47.467Z,2.13
2018-02-15T16:14:14.974Z,1.97
2018-02-15T16:16:42.482Z,2.20
2018-02-15T16:19:10.017Z,2.53
2018-02-15T16:21:37.546Z,2.30
2018-02-15T16:24:05.822Z,2.27
2018-02-15T16:26:34.107Z,2.57
2018-02-15T16:29:02.407Z,2.60
2018-02-15T16:31:29.927Z,2.37
2018-02-15T16:33:57.447Z,2.47
2018-02-15T16:36:24.988Z,2.50
2018-02-15T16:38:53.260Z,2.13
2018-02-15T16:41:20.765Z,2.17
2018-02-15T16:43:49.063Z,2.67
2018-02-15T16:46:16.572Z,2.20
2018-02-15T16:48:44.876Z,2.00
2018-02-15T16:51:12.397Z,2.20
2018-02-15T16:53:39.923Z,2.50
2018-02-15T16:56:07.451Z,2.20
2018-02-15T16:58:35.740Z,2.40
2018-02-15T17:01:03.291Z,2.33
2018-02-15T17:03:31.572Z,2.20
2018-02-15T17:05:59.855Z,2.30
2018-02-15T17:08:28.140Z,2.30
2018-02-15T17:10:56.534Z,2.33
2018-02-15T17:13:24.133Z,2.40
2018-02-15T17:15:51.701Z,2.67
2018-02-15T17:18:19.245Z,2.30
2018-02-15T17:20:46.791Z,2.60
2018-02-15T17:23:15.120Z,2.50
2018-02-15T17:25:42.642Z,1.87
2018-02-15T17:28:10.159Z,2.20
2018-02-15T17:30:37.703Z,2.57
2018-02-15T17:33:06.103Z,2.40
2018-02-15T17:35:33.643Z,2.17
2018-02-15T17:38:01.143Z,2.20
2018-02-15T17:40:28.657Z,2.60
2018-02-15T17:42:56.195Z,2.57
2018-02-15T17:45:24.499Z,2.23
2018-02-15T17:47:52.036Z,2.83
2018-02-15T17:50:19.546Z,2.60
2018-02-15T17:52:47.114Z,2.33
2018-02-15T17:55:14.621Z,2.67
2018-02-15T17:57:42.142Z,2.00
2018-02-15T18:00:09.659Z,2.57
2018-02-15T18:02:37.940Z,2.30
2018-02-15T18:05:06.239Z,2.23
2018-02-15T18:07:34.544Z,2.70
2018-02-15T18:10:02.124Z,2.70
2018-02-15T18:12:30.398Z,2.20
2018-02-15T18:14:57.892Z,2.50
2018-02-15T18:17:25.417Z,2.20
2018-02-15T18:19:52.951Z,2.80
2018-02-15T18:22:21.262Z,2.50
2018-02-15T18:24:48.802Z,2.23
2018-02-15T18:27:17.140Z,2.40
2018-02-15T18:29:44.653Z,2.37
2018-02-15T18:32:12.956Z,1.87
2018-02-15T18:34:40.462Z,3.13
2018-02-15T18:37:07.988Z,2.03
2018-02-15T18:39:35.610Z,2.43
2018-02-15T18:42:03.878Z,2.37
2018-02-15T18:44:31.417Z,2.13
2018-02-15T18:46:59.044Z,2.40
2018-02-15T18:49:26.575Z,1.93
2018-02-15T18:51:54.112Z,2.67
2018-02-15T18:54:21.611Z,2.17
2018-02-15T18:56:49.765Z,2.33
2018-02-15T18:59:17.296Z,2.10
2018-02-15T19:01:44.826Z,2.20
2018-02-15T19:04:13.126Z,2.43
2018-02-15T19:06:40.670Z,2.20
2018-02-15T19:09:08.971Z,2.30
2018-02-15T19:11:37.266Z,2.60
2018-02-15T19:14:04.793Z,1.90
2018-02-15T19:16:33.114Z,2.33
2018-02-15T19:19:00.644Z,2.40
2018-02-15T19:21:29.073Z,2.20
2018-02-15T19:23:56.589Z,2.13
2018-02-15T19:26:24.110Z,2.13
2018-02-15T19:28:51.624Z,2.00
2018-02-15T19:31:19.940Z,2.00
2018-02-15T19:33:47.463Z,2.03
2018-02-15T19:36:15.000Z,1.80
2018-02-15T19:38:42.531Z,1.97
2018-02-15T19:41:10.070Z,2.40
2018-02-15T19:43:38.348Z,2.60
2018-02-15T19:46:06.637Z,2.17
2018-02-15T19:48:34.946Z,2.63
2018-02-15T19:51:02.454Z,2.10
2018-02-15T19:53:30.037Z,2.10
2018-02-15T19:55:58.311Z,2.10
2018-02-15T19:58:25.843Z,2.20
2018-02-15T20:00:53.362Z,2.00
2018-02-15T20:03:20.879Z,2.87
2018-02-15T20:05:48.446Z,2.50
2018-02-15T20:08:16.014Z,2.23
2018-02-15T20:10:43.531Z,2.30
2018-02-15T20:13:11.041Z,2.63
2018-02-15T20:15:44.246Z,2.40
2018-02-15T20:18:11.759Z,1.80
2018-02-15T20:20:39.272Z,2.10
2018-02-15T20:23:06.782Z,2.07
2018-02-15T20:25:34.287Z,2.23
2018-02-15T20:28:07.415Z,2.80
2018-02-15T20:30:35.693Z,1.80
2018-02-15T20:33:03.991Z,2.00
2018-02-15T20:35:31.523Z,1.97
2018-02-15T20:38:05.564Z,2.13
2018-02-15T20:40:36.332Z,2.20
2018-02-15T20:43:03.836Z,2.10
2018-02-15T20:45:31.370Z,1.70
2018-02-15T20:47:58.871Z,2.03
2018-02-15T20:50:32.174Z,2.37
2018-02-15T20:53:06.179Z,2.00
2018-02-15T20:55:39.414Z,2.23
2018-02-15T20:58:06.921Z,1.83
2018-02-15T21:00:34.521Z,2.20
2018-02-15T21:03:01.991Z,2.00
2018-02-15T21:05:30.276Z,1.80
2018-02-15T21:07:58.570Z,2.07
2018-02-15T21:10:26.088Z,2.40
2018-02-15T21:12:53.621Z,1.60
2018-02-15T21:15:21.149Z,1.87
2018-02-15T21:17:49.478Z,2.20
2018-02-15T21:20:17.027Z,2.20
2018-02-15T21:22:45.331Z,2.20
2018-02-15T21:25:12.831Z,1.87
2018-02-15T21:27:41.112Z,2.20
2018-02-15T21:30:09.663Z,2.03
2018-02-15T21:32:37.206Z,3.03
2018-02-15T21:35:04.704Z,1.70
2018-02-15T21:37:32.226Z,1.90
2018-02-15T21:39:59.749Z,2.00
2018-02-15T21:42:28.064Z,1.90
2018-02-15T21:44:55.569Z,2.20
2018-02-15T21:47:23.082Z,2.20
2018-02-15T21:49:50.617Z,1.90
2018-02-15T21:52:18.132Z,1.60
2018-02-15T21:54:45.661Z,1.77
2018-02-15T21:57:13.940Z,1.80
2018-02-15T21:59:42.229Z,2.07
2018-02-15T22:02:09.765Z,2.20
2018-02-15T22:04:37.280Z,1.80
2018-02-15T22:07:04.816Z,2.17
2018-02-15T22:09:33.124Z,1.83
2018-02-15T22:12:00.646Z,1.97
2018-02-15T22:14:28.964Z,2.10
2018-02-15T22:16:56.567Z,1.93
2018-02-15T22:19:25.888Z,2.20
2018-02-15T22:21:54.167Z,2.10
2018-02-15T22:24:21.654Z,2.13
2018-02-15T22:26:49.861Z,1.80
2018-02-15T22:29:17.309Z,1.70
2018-02-15T22:31:44.758Z,1.80
2018-02-15T22:34:12.977Z,1.60
2018-02-15T22:36:40.439Z,2.00
2018-02-15T22:39:07.890Z,2.00
2018-02-15T22:41:35.359Z,1.83
2018-02-15T22:44:02.820Z,1.50
2018-02-15T22:46:30.282Z,1.83
2018-02-15T22:48:57.761Z,1.70
2018-02-15T22:51:25.206Z,1.70
2018-02-15T22:53:52.929Z,1.50
2018-02-15T22:56:20.378Z,1.83
2018-02-15T22:58:47.821Z,2.10
2018-02-15T23:01:15.264Z,2.40
2018-02-15T23:03:42.721Z,1.90
2018-02-15T23:06:10.173Z,2.00
2018-02-15T23:08:37.640Z,2.03
2018-02-15T23:11:05.097Z,2.00
2018-02-15T23:13:32.530Z,1.77
2018-02-15T23:15:59.986Z,2.00
2018-02-15T23:18:27.427Z,2.17
2018-02-15T23:20:54.895Z,2.27
2018-02-15T23:23:22.359Z,1.77
2018-02-15T23:25:49.812Z,1.83
2018-02-15T23:28:17.276Z,2.20
2018-02-15T23:30:44.738Z,2.00
2018-02-15T23:33:12.203Z,2.20
2018-02-15T23:35:39.656Z,2.07
2018-02-15T23:38:07.114Z,2.30
2018-02-15T23:40:34.582Z,3.20
2018-02-15T23:43:02.026Z,2.13
2018-02-15T23:45:29.496Z,2.53
2018-02-15T23:47:57.722Z,2.57
2018-02-15T23:50:25.195Z,2.67
2018-02-15T23:52:52.632Z,2.70
2018-02-15T23:55:20.106Z,2.20
2018-02-15T23:57:47.561Z,2.67
